Terminal Aerodrome Forecast
Issued by NWS

Home | Current Version | Previous Version | Text Only | Print | Product List | Glossary On
Versions: 1 2 3 4 5 6 7 8 9 10 11 12 13 14 15 16 17 18 19 20 21 22 23 24
000
FTUS41 KBUF 200214 AAA
TAFIAG
TAF AMD
KIAG 200214Z 2002/2024 20012G20KT 3SM RA BR BKN007 BKN025
      WS020/23045KT
     FM200600 21015KT 5SM -RA OVC020 WS020/23045KT
     FM201000 20012KT 3SM RA OVC012 WS020/23045KT
     FM201600 21018G28KT 6SM -SHRA OVC020 WS020/23045KT
     FM201800 22020G38KT P6SM BKN035
     FM202200 22018G30KT P6SM BKN060=

USA.gov is the U.S. government's official web portal to all federal, state and local government web resources and services.